Terminal Aerodrome Forecast
Issued by NWS

Home | Current Version | Previous Version | Text Only | Print | Product List | Glossary On
Versions: 1 2 3 4 5 6 7 8 9 10 11 12 13 14 15
000
FTUS46 KMFR 050532
TAFRBG
TAF
KRBG 050532Z 0506/0606 VRB02KT P6SM BKN080
     FM050900 VRB02KT P6SM SCT015
     FM051200 00000KT P6SM SCT007 BKN015
     FM051700 34003KT P6SM SCT020
     FM052100 36007KT P6SM SKC=

USA.gov is the U.S. government's official web portal to all federal, state and local government web resources and services.